sensor_id;sensor_type;location;lat;lon;timestamp;temperature;humidity
21318;DHT22;10818;50.830;6.524;2022-12-07T00:02:28;6.00;99.90
21318;DHT22;10818;50.830;6.524;2022-12-07T00:07:28;5.90;99.90
21318;DHT22;10818;50.830;6.524;2022-12-07T00:12:29;6.00;99.90
21318;DHT22;10818;50.830;6.524;2022-12-07T00:17:29;6.10;99.90
21318;DHT22;10818;50.830;6.524;2022-12-07T00:22:30;6.10;99.90
21318;DHT22;10818;50.830;6.524;2022-12-07T00:27:30;6.10;99.90
21318;DHT22;10818;50.830;6.524;2022-12-07T00:32:31;6.10;99.90
21318;DHT22;10818;50.830;6.524;2022-12-07T00:37:31;6.10;99.90
21318;DHT22;10818;50.830;6.524;2022-12-07T00:42:31;6.00;99.90
21318;DHT22;10818;50.830;6.524;2022-12-07T00:47:32;6.10;99.90
21318;DHT22;10818;50.830;6.524;2022-12-07T00:52:32;6.20;99.90
21318;DHT22;10818;50.830;6.524;2022-12-07T00:57:33;6.20;99.90
21318;DHT22;10818;50.830;6.524;2022-12-07T01:02:33;6.10;99.90
21318;DHT22;10818;50.830;6.524;2022-12-07T01:07:34;6.00;99.90
21318;DHT22;10818;50.830;6.524;2022-12-07T01:12:34;6.10;99.90
21318;DHT22;10818;50.830;6.524;2022-12-07T01:17:35;6.10;99.90
21318;DHT22;10818;50.830;6.524;2022-12-07T01:22:38;6.10;99.90
21318;DHT22;10818;50.830;6.524;2022-12-07T01:27:39;6.20;99.90
21318;DHT22;10818;50.830;6.524;2022-12-07T01:32:39;6.20;99.90
21318;DHT22;10818;50.830;6.524;2022-12-07T01:37:40;6.10;99.90
21318;DHT22;10818;50.830;6.524;2022-12-07T01:42:40;6.20;99.90
21318;DHT22;10818;50.830;6.524;2022-12-07T01:47:41;6.10;99.90
21318;DHT22;10818;50.830;6.524;2022-12-07T01:52:43;6.10;99.90
21318;DHT22;10818;50.830;6.524;2022-12-07T01:57:47;6.10;99.90
21318;DHT22;10818;50.830;6.524;2022-12-07T02:03:05;6.10;99.90
21318;DHT22;10818;50.830;6.524;2022-12-07T02:08:06;6.20;99.90
21318;DHT22;10818;50.830;6.524;2022-12-07T02:13:09;6.20;99.90
21318;DHT22;10818;50.830;6.524;2022-12-07T02:23:29;6.30;99.90
21318;DHT22;10818;50.830;6.524;2022-12-07T02:28:33;6.20;99.90
21318;DHT22;10818;50.830;6.524;2022-12-07T02:33:42;6.20;99.90
21318;DHT22;10818;50.830;6.524;2022-12-07T02:38:45;6.10;99.90
21318;DHT22;10818;50.830;6.524;2022-12-07T02:43:48;6.20;99.90
21318;DHT22;10818;50.830;6.524;2022-12-07T02:48:51;6.10;99.90
21318;DHT22;10818;50.830;6.524;2022-12-07T02:53:52;6.20;99.90
21318;DHT22;10818;50.830;6.524;2022-12-07T02:59:10;6.20;99.90
21318;DHT22;10818;50.830;6.524;2022-12-07T03:09:27;6.20;99.90
21318;DHT22;10818;50.830;6.524;2022-12-07T03:14:34;6.20;99.90
21318;DHT22;10818;50.830;6.524;2022-12-07T03:19:36;6.10;99.90
21318;DHT22;10818;50.830;6.524;2022-12-07T03:24:39;6.20;99.90
21318;DHT22;10818;50.830;6.524;2022-12-07T03:29:43;6.20;99.90
21318;DHT22;10818;50.830;6.524;2022-12-07T03:45:02;6.20;99.90
21318;DHT22;10818;50.830;6.524;2022-12-07T03:50:07;6.30;99.90
21318;DHT22;10818;50.830;6.524;2022-12-07T03:55:14;6.20;99.90
21318;DHT22;10818;50.830;6.524;2022-12-07T04:00:16;6.00;99.90
21318;DHT22;10818;50.830;6.524;2022-12-07T04:05:18;6.10;99.90
21318;DHT22;10818;50.830;6.524;2022-12-07T04:10:18;6.00;99.90
21318;DHT22;10818;50.830;6.524;2022-12-07T04:15:19;6.10;99.90
21318;DHT22;10818;50.830;6.524;2022-12-07T04:20:19;6.10;99.90
21318;DHT22;10818;50.830;6.524;2022-12-07T04:25:20;6.00;99.90
21318;DHT22;10818;50.830;6.524;2022-12-07T04:30:20;5.90;99.90
21318;DHT22;10818;50.830;6.524;2022-12-07T04:35:21;5.90;99.90
21318;DHT22;10818;50.830;6.524;2022-12-07T04:40:21;5.90;99.90
21318;DHT22;10818;50.830;6.524;2022-12-07T04:45:21;5.90;99.90
21318;DHT22;10818;50.830;6.524;2022-12-07T04:50:22;5.80;99.90
21318;DHT22;10818;50.830;6.524;2022-12-07T04:55:22;5.80;99.90
21318;DHT22;10818;50.830;6.524;2022-12-07T05:00:23;5.80;99.90
21318;DHT22;10818;50.830;6.524;2022-12-07T05:05:23;5.80;99.90
21318;DHT22;10818;50.830;6.524;2022-12-07T05:10:24;5.70;99.90
21318;DHT22;10818;50.830;6.524;2022-12-07T05:15:24;5.70;99.90
21318;DHT22;10818;50.830;6.524;2022-12-07T05:20:25;5.70;99.90
21318;DHT22;10818;50.830;6.524;2022-12-07T05:25:25;5.70;99.90
21318;DHT22;10818;50.830;6.524;2022-12-07T05:30:26;5.70;99.90
21318;DHT22;10818;50.830;6.524;2022-12-07T05:35:26;5.70;99.90
21318;DHT22;10818;50.830;6.524;2022-12-07T05:40:27;5.60;99.90
21318;DHT22;10818;50.830;6.524;2022-12-07T05:45:27;5.60;99.90
21318;DHT22;10818;50.830;6.524;2022-12-07T05:50:27;5.60;99.90
21318;DHT22;10818;50.830;6.524;2022-12-07T05:55:28;5.60;99.90
21318;DHT22;10818;50.830;6.524;2022-12-07T06:00:28;5.60;99.90
21318;DHT22;10818;50.830;6.524;2022-12-07T06:05:29;5.70;99.90
21318;DHT22;10818;50.830;6.524;2022-12-07T06:10:29;5.70;99.90
21318;DHT22;10818;50.830;6.524;2022-12-07T06:15:30;5.70;99.90
21318;DHT22;10818;50.830;6.524;2022-12-07T06:20:30;5.70;99.90
21318;DHT22;10818;50.830;6.524;2022-12-07T06:25:30;5.70;99.90
21318;DHT22;10818;50.830;6.524;2022-12-07T06:30:31;5.70;99.90
21318;DHT22;10818;50.830;6.524;2022-12-07T06:35:32;5.70;99.90
21318;DHT22;10818;50.830;6.524;2022-12-07T06:40:32;5.60;99.90
21318;DHT22;10818;50.830;6.524;2022-12-07T06:45:33;5.70;99.90
21318;DHT22;10818;50.830;6.524;2022-12-07T06:50:33;5.70;99.90
21318;DHT22;10818;50.830;6.524;2022-12-07T06:55:34;5.70;99.90
21318;DHT22;10818;50.830;6.524;2022-12-07T07:00:34;5.70;99.90
21318;DHT22;10818;50.830;6.524;2022-12-07T07:05:35;5.70;99.90
21318;DHT22;10818;50.830;6.524;2022-12-07T07:10:35;5.70;99.90
21318;DHT22;10818;50.830;6.524;2022-12-07T07:15:39;5.60;99.90
21318;DHT22;10818;50.830;6.524;2022-12-07T07:20:40;5.60;99.90
21318;DHT22;10818;50.830;6.524;2022-12-07T07:25:40;5.50;99.90
21318;DHT22;10818;50.830;6.524;2022-12-07T07:30:41;5.40;99.90
21318;DHT22;10818;50.830;6.524;2022-12-07T07:35:41;5.20;99.90
21318;DHT22;10818;50.830;6.524;2022-12-07T07:40:42;5.20;99.90
21318;DHT22;10818;50.830;6.524;2022-12-07T07:45:42;5.30;99.90
21318;DHT22;10818;50.830;6.524;2022-12-07T07:50:44;5.40;99.90
21318;DHT22;10818;50.830;6.524;2022-12-07T07:55:53;5.30;99.90
21318;DHT22;10818;50.830;6.524;2022-12-07T08:00:54;5.30;99.90
21318;DHT22;10818;50.830;6.524;2022-12-07T08:05:55;5.30;99.90
21318;DHT22;10818;50.830;6.524;2022-12-07T08:10:55;5.40;99.90
21318;DHT22;10818;50.830;6.524;2022-12-07T08:15:56;5.70;99.90
21318;DHT22;10818;50.830;6.524;2022-12-07T08:20:59;5.90;99.90
21318;DHT22;10818;50.830;6.524;2022-12-07T08:26:01;6.20;99.90
21318;DHT22;10818;50.830;6.524;2022-12-07T08:31:03;6.40;99.90
21318;DHT22;10818;50.830;6.524;2022-12-07T08:36:04;6.50;99.90
21318;DHT22;10818;50.830;6.524;2022-12-07T08:41:05;6.60;99.90
21318;DHT22;10818;50.830;6.524;2022-12-07T08:46:10;6.60;99.90
21318;DHT22;10818;50.830;6.524;2022-12-07T08:51:11;6.50;99.90
21318;DHT22;10818;50.830;6.524;2022-12-07T08:56:12;6.50;99.90
21318;DHT22;10818;50.830;6.524;2022-12-07T09:01:12;7.50;99.90
21318;DHT22;10818;50.830;6.524;2022-12-07T09:06:13;8.40;99.90
21318;DHT22;10818;50.830;6.524;2022-12-07T09:11:14;10.10;99.90
21318;DHT22;10818;50.830;6.524;2022-12-07T09:16:14;12.00;99.90
21318;DHT22;10818;50.830;6.524;2022-12-07T09:21:14;13.50;99.90
21318;DHT22;10818;50.830;6.524;2022-12-07T09:26:15;11.60;99.90
21318;DHT22;10818;50.830;6.524;2022-12-07T09:31:15;9.90;99.90
21318;DHT22;10818;50.830;6.524;2022-12-07T09:36:16;9.10;99.90
21318;DHT22;10818;50.830;6.524;2022-12-07T09:41:16;8.70;99.90
21318;DHT22;10818;50.830;6.524;2022-12-07T09:46:17;8.90;99.90
21318;DHT22;10818;50.830;6.524;2022-12-07T09:51:20;8.90;99.90
21318;DHT22;10818;50.830;6.524;2022-12-07T09:56:20;8.70;99.90
21318;DHT22;10818;50.830;6.524;2022-12-07T10:01:22;8.50;99.90
21318;DHT22;10818;50.830;6.524;2022-12-07T10:06:22;8.50;99.90
21318;DHT22;10818;50.830;6.524;2022-12-07T10:11:22;8.60;99.90
21318;DHT22;10818;50.830;6.524;2022-12-07T10:21:24;8.70;99.90
21318;DHT22;10818;50.830;6.524;2022-12-07T10:31:26;8.60;99.90
21318;DHT22;10818;50.830;6.524;2022-12-07T10:41:33;8.80;99.90
21318;DHT22;10818;50.830;6.524;2022-12-07T10:52:08;8.80;99.90
21318;DHT22;10818;50.830;6.524;2022-12-07T10:57:18;8.90;99.90
21318;DHT22;10818;50.830;6.524;2022-12-07T11:02:35;8.60;99.90
21318;DHT22;10818;50.830;6.524;2022-12-07T11:12:55;7.90;99.90
21318;DHT22;10818;50.830;6.524;2022-12-07T11:18:09;7.90;99.90
21318;DHT22;10818;50.830;6.524;2022-12-07T11:34:06;7.80;99.90
21318;DHT22;10818;50.830;6.524;2022-12-07T11:55:16;8.00;99.90
21318;DHT22;10818;50.830;6.524;2022-12-07T12:00:19;8.20;99.90
21318;DHT22;10818;50.830;6.524;2022-12-07T12:05:22;8.40;99.90
21318;DHT22;10818;50.830;6.524;2022-12-07T12:10:27;8.60;99.90
21318;DHT22;10818;50.830;6.524;2022-12-07T12:15:38;8.50;99.90
21318;DHT22;10818;50.830;6.524;2022-12-07T12:25:47;8.20;99.90
21318;DHT22;10818;50.830;6.524;2022-12-07T12:31:07;8.20;99.90
21318;DHT22;10818;50.830;6.524;2022-12-07T12:46:38;8.00;99.90
21318;DHT22;10818;50.830;6.524;2022-12-07T12:51:46;8.00;99.90
21318;DHT22;10818;50.830;6.524;2022-12-07T12:56:58;8.10;99.90
21318;DHT22;10818;50.830;6.524;2022-12-07T13:12:37;8.00;99.90
21318;DHT22;10818;50.830;6.524;2022-12-07T13:22:40;7.90;99.90
21318;DHT22;10818;50.830;6.524;2022-12-07T13:27:43;8.00;99.90
21318;DHT22;10818;50.830;6.524;2022-12-07T13:32:54;8.00;99.90
21318;DHT22;10818;50.830;6.524;2022-12-07T13:37:55;8.00;99.90
21318;DHT22;10818;50.830;6.524;2022-12-07T13:43:03;7.90;99.90
21318;DHT22;10818;50.830;6.524;2022-12-07T13:48:04;7.80;99.90
21318;DHT22;10818;50.830;6.524;2022-12-07T13:53:07;7.80;99.90
21318;DHT22;10818;50.830;6.524;2022-12-07T13:58:11;7.70;99.90
21318;DHT22;10818;50.830;6.524;2022-12-07T14:34:21;7.10;99.90
21318;DHT22;10818;50.830;6.524;2022-12-07T14:39:22;7.00;99.90
21318;DHT22;10818;50.830;6.524;2022-12-07T14:44:23;6.90;99.90
21318;DHT22;10818;50.830;6.524;2022-12-07T14:49:23;6.90;99.90
21318;DHT22;10818;50.830;6.524;2022-12-07T14:54:24;6.90;99.90
21318;DHT22;10818;50.830;6.524;2022-12-07T14:59:27;6.90;99.90
21318;DHT22;10818;50.830;6.524;2022-12-07T15:04:28;6.90;99.90
21318;DHT22;10818;50.830;6.524;2022-12-07T15:09:28;6.80;99.90
21318;DHT22;10818;50.830;6.524;2022-12-07T15:14:29;6.80;99.90
21318;DHT22;10818;50.830;6.524;2022-12-07T15:19:29;6.70;99.90
21318;DHT22;10818;50.830;6.524;2022-12-07T15:24:29;6.70;99.90
21318;DHT22;10818;50.830;6.524;2022-12-07T15:29:30;6.60;99.90
21318;DHT22;10818;50.830;6.524;2022-12-07T15:34:30;6.60;99.90
21318;DHT22;10818;50.830;6.524;2022-12-07T15:39:32;6.50;99.90
21318;DHT22;10818;50.830;6.524;2022-12-07T15:44:32;6.50;99.90
21318;DHT22;10818;50.830;6.524;2022-12-07T15:49:51;6.50;99.90
21318;DHT22;10818;50.830;6.524;2022-12-07T15:54:52;6.60;99.90
21318;DHT22;10818;50.830;6.524;2022-12-07T15:59:52;6.60;99.90
21318;DHT22;10818;50.830;6.524;2022-12-07T16:04:53;6.50;99.90
21318;DHT22;10818;50.830;6.524;2022-12-07T16:09:54;6.50;99.90
21318;DHT22;10818;50.830;6.524;2022-12-07T16:14:54;6.30;99.90
21318;DHT22;10818;50.830;6.524;2022-12-07T16:19:55;6.10;99.90
21318;DHT22;10818;50.830;6.524;2022-12-07T16:24:55;6.00;99.90
21318;DHT22;10818;50.830;6.524;2022-12-07T16:29:56;5.70;99.90
21318;DHT22;10818;50.830;6.524;2022-12-07T16:34:56;5.70;99.90
21318;DHT22;10818;50.830;6.524;2022-12-07T16:39:56;5.60;99.90
21318;DHT22;10818;50.830;6.524;2022-12-07T16:44:57;5.60;99.90
21318;DHT22;10818;50.830;6.524;2022-12-07T16:49:57;5.60;99.90
21318;DHT22;10818;50.830;6.524;2022-12-07T16:54:58;5.70;99.90
21318;DHT22;10818;50.830;6.524;2022-12-07T16:59:58;5.70;99.90
21318;DHT22;10818;50.830;6.524;2022-12-07T17:04:59;5.70;99.90
21318;DHT22;10818;50.830;6.524;2022-12-07T17:09:59;5.70;99.90
21318;DHT22;10818;50.830;6.524;2022-12-07T17:14:59;5.80;99.90
21318;DHT22;10818;50.830;6.524;2022-12-07T17:20:21;5.90;99.90
21318;DHT22;10818;50.830;6.524;2022-12-07T17:25:21;6.00;99.90
21318;DHT22;10818;50.830;6.524;2022-12-07T17:30:22;5.90;99.90
21318;DHT22;10818;50.830;6.524;2022-12-07T17:35:22;6.00;99.90
21318;DHT22;10818;50.830;6.524;2022-12-07T17:40:23;5.90;99.90
21318;DHT22;10818;50.830;6.524;2022-12-07T17:45:23;5.90;99.90
21318;DHT22;10818;50.830;6.524;2022-12-07T17:50:24;5.90;99.90
21318;DHT22;10818;50.830;6.524;2022-12-07T17:55:43;5.90;99.90
21318;DHT22;10818;50.830;6.524;2022-12-07T18:00:43;5.90;99.90
21318;DHT22;10818;50.830;6.524;2022-12-07T18:05:43;5.90;99.90
21318;DHT22;10818;50.830;6.524;2022-12-07T18:10:44;5.90;99.90
21318;DHT22;10818;50.830;6.524;2022-12-07T18:15:45;5.90;99.90
21318;DHT22;10818;50.830;6.524;2022-12-07T18:20:46;5.80;99.90
21318;DHT22;10818;50.830;6.524;2022-12-07T18:25:47;5.80;99.90
21318;DHT22;10818;50.830;6.524;2022-12-07T18:30:48;5.70;99.90
21318;DHT22;10818;50.830;6.524;2022-12-07T18:35:50;5.60;99.90
21318;DHT22;10818;50.830;6.524;2022-12-07T18:40:51;5.60;99.90
21318;DHT22;10818;50.830;6.524;2022-12-07T18:45:52;5.60;99.90
21318;DHT22;10818;50.830;6.524;2022-12-07T18:51:02;5.60;99.90
21318;DHT22;10818;50.830;6.524;2022-12-07T18:56:04;5.60;99.90
21318;DHT22;10818;50.830;6.524;2022-12-07T19:01:05;5.50;99.90
21318;DHT22;10818;50.830;6.524;2022-12-07T19:06:05;5.50;99.90
21318;DHT22;10818;50.830;6.524;2022-12-07T19:11:06;5.40;99.90
21318;DHT22;10818;50.830;6.524;2022-12-07T19:16:26;5.40;99.90
21318;DHT22;10818;50.830;6.524;2022-12-07T19:21:27;5.40;99.90
21318;DHT22;10818;50.830;6.524;2022-12-07T19:26:27;5.40;99.90
21318;DHT22;10818;50.830;6.524;2022-12-07T19:31:28;5.40;99.90
21318;DHT22;10818;50.830;6.524;2022-12-07T19:36:28;5.40;99.90
21318;DHT22;10818;50.830;6.524;2022-12-07T19:41:28;5.50;99.90
21318;DHT22;10818;50.830;6.524;2022-12-07T19:46:35;5.50;99.90
21318;DHT22;10818;50.830;6.524;2022-12-07T19:51:36;5.50;99.90
21318;DHT22;10818;50.830;6.524;2022-12-07T19:56:36;5.50;99.90
21318;DHT22;10818;50.830;6.524;2022-12-07T20:01:37;5.50;99.90
21318;DHT22;10818;50.830;6.524;2022-12-07T20:06:39;5.50;99.90
21318;DHT22;10818;50.830;6.524;2022-12-07T20:11:40;5.50;99.90
21318;DHT22;10818;50.830;6.524;2022-12-07T20:16:59;5.40;99.90
21318;DHT22;10818;50.830;6.524;2022-12-07T20:21:59;5.30;99.90
21318;DHT22;10818;50.830;6.524;2022-12-07T20:27:00;5.30;99.90
21318;DHT22;10818;50.830;6.524;2022-12-07T20:32:01;5.30;99.90
21318;DHT22;10818;50.830;6.524;2022-12-07T20:37:01;5.30;99.90
21318;DHT22;10818;50.830;6.524;2022-12-07T20:42:02;5.30;99.90
21318;DHT22;10818;50.830;6.524;2022-12-07T20:47:21;5.40;99.90
21318;DHT22;10818;50.830;6.524;2022-12-07T20:52:22;5.40;99.90
21318;DHT22;10818;50.830;6.524;2022-12-07T20:57:22;5.40;99.90
21318;DHT22;10818;50.830;6.524;2022-12-07T21:02:22;5.50;99.90
21318;DHT22;10818;50.830;6.524;2022-12-07T21:07:23;5.40;99.90
21318;DHT22;10818;50.830;6.524;2022-12-07T21:12:24;5.30;99.90
21318;DHT22;10818;50.830;6.524;2022-12-07T21:17:24;5.40;99.90
21318;DHT22;10818;50.830;6.524;2022-12-07T21:22:25;5.30;99.90
21318;DHT22;10818;50.830;6.524;2022-12-07T21:27:26;5.30;99.90
21318;DHT22;10818;50.830;6.524;2022-12-07T21:32:26;5.20;99.90
21318;DHT22;10818;50.830;6.524;2022-12-07T21:37:27;5.20;99.90
21318;DHT22;10818;50.830;6.524;2022-12-07T21:42:27;5.20;99.90
21318;DHT22;10818;50.830;6.524;2022-12-07T21:47:28;5.10;99.90
21318;DHT22;10818;50.830;6.524;2022-12-07T21:52:28;5.10;99.90
21318;DHT22;10818;50.830;6.524;2022-12-07T21:57:30;5.20;99.90
21318;DHT22;10818;50.830;6.524;2022-12-07T22:02:30;5.20;99.90
21318;DHT22;10818;50.830;6.524;2022-12-07T22:07:31;5.30;99.90
21318;DHT22;10818;50.830;6.524;2022-12-07T22:12:32;5.20;99.90
21318;DHT22;10818;50.830;6.524;2022-12-07T22:17:32;5.20;99.90
21318;DHT22;10818;50.830;6.524;2022-12-07T22:22:33;5.20;99.90
21318;DHT22;10818;50.830;6.524;2022-12-07T22:27:33;5.20;99.90
21318;DHT22;10818;50.830;6.524;2022-12-07T22:32:34;5.20;99.90
21318;DHT22;10818;50.830;6.524;2022-12-07T22:37:34;5.30;99.90
21318;DHT22;10818;50.830;6.524;2022-12-07T22:42:35;5.20;99.90
21318;DHT22;10818;50.830;6.524;2022-12-07T22:47:35;5.20;99.90
21318;DHT22;10818;50.830;6.524;2022-12-07T22:52:36;5.20;99.90
21318;DHT22;10818;50.830;6.524;2022-12-07T22:57:36;5.30;99.90
21318;DHT22;10818;50.830;6.524;2022-12-07T23:02:36;5.30;99.90
21318;DHT22;10818;50.830;6.524;2022-12-07T23:07:37;5.30;99.90
21318;DHT22;10818;50.830;6.524;2022-12-07T23:12:37;5.30;99.90
21318;DHT22;10818;50.830;6.524;2022-12-07T23:17:57;5.30;99.90
21318;DHT22;10818;50.830;6.524;2022-12-07T23:22:57;5.30;99.90
21318;DHT22;10818;50.830;6.524;2022-12-07T23:27:57;5.20;99.90
21318;DHT22;10818;50.830;6.524;2022-12-07T23:32:58;5.30;99.90
21318;DHT22;10818;50.830;6.524;2022-12-07T23:37:58;5.40;99.90
21318;DHT22;10818;50.830;6.524;2022-12-07T23:42:59;5.40;99.90
21318;DHT22;10818;50.830;6.524;2022-12-07T23:47:59;5.50;99.90
21318;DHT22;10818;50.830;6.524;2022-12-07T23:53:00;5.40;99.90
21318;DHT22;10818;50.830;6.524;2022-12-07T23:58:00;5.50;99.90
